sensor_id;sensor_type;location;lat;lon;timestamp;P1;durP1;ratioP1;P2;durP2;ratioP2
13425;SDS011;6785;57.918;12.530;2022-12-29T00:00:14;7.80;;;3.17;;
13425;SDS011;6785;57.918;12.530;2022-12-29T00:02:42;11.53;;;2.47;;
13425;SDS011;6785;57.918;12.530;2022-12-29T00:05:09;9.07;;;2.80;;
13425;SDS011;6785;57.918;12.530;2022-12-29T00:07:36;4.33;;;2.70;;
13425;SDS011;6785;57.918;12.530;2022-12-29T00:10:03;12.13;;;2.77;;
13425;SDS011;6785;57.918;12.530;2022-12-29T00:12:30;5.23;;;2.50;;
13425;SDS011;6785;57.918;12.530;2022-12-29T00:15:11;3.67;;;2.30;;
13425;SDS011;6785;57.918;12.530;2022-12-29T00:17:56;5.37;;;2.30;;
13425;SDS011;6785;57.918;12.530;2022-12-29T00:20:23;7.30;;;2.50;;
13425;SDS011;6785;57.918;12.530;2022-12-29T00:23:08;3.03;;;2.13;;
13425;SDS011;6785;57.918;12.530;2022-12-29T00:25:52;4.83;;;2.00;;
13425;SDS011;6785;57.918;12.530;2022-12-29T00:28:36;7.07;;;2.20;;
13425;SDS011;6785;57.918;12.530;2022-12-29T00:31:20;3.30;;;1.77;;
13425;SDS011;6785;57.918;12.530;2022-12-29T00:34:07;1.70;;;1.60;;
13425;SDS011;6785;57.918;12.530;2022-12-29T00:36:54;5.50;;;1.90;;
13425;SDS011;6785;57.918;12.530;2022-12-29T00:39:20;3.73;;;1.93;;
13425;SDS011;6785;57.918;12.530;2022-12-29T00:42:05;1.77;;;1.63;;
13425;SDS011;6785;57.918;12.530;2022-12-29T00:44:50;3.13;;;1.80;;
13425;SDS011;6785;57.918;12.530;2022-12-29T00:47:17;5.57;;;1.70;;
13425;SDS011;6785;57.918;12.530;2022-12-29T00:49:45;3.67;;;2.00;;
13425;SDS011;6785;57.918;12.530;2022-12-29T00:52:11;2.03;;;1.70;;
13425;SDS011;6785;57.918;12.530;2022-12-29T00:54:39;2.77;;;1.47;;
13425;SDS011;6785;57.918;12.530;2022-12-29T00:57:09;1.60;;;1.50;;
13425;SDS011;6785;57.918;12.530;2022-12-29T00:59:37;1.50;;;1.40;;
13425;SDS011;6785;57.918;12.530;2022-12-29T01:02:05;4.83;;;1.60;;
13425;SDS011;6785;57.918;12.530;2022-12-29T01:04:32;2.90;;;1.97;;
13425;SDS011;6785;57.918;12.530;2022-12-29T01:07:01;3.43;;;1.57;;
13425;SDS011;6785;57.918;12.530;2022-12-29T01:09:27;3.23;;;1.30;;
13425;SDS011;6785;57.918;12.530;2022-12-29T01:12:11;2.70;;;1.43;;
13425;SDS011;6785;57.918;12.530;2022-12-29T01:14:38;2.73;;;1.23;;
13425;SDS011;6785;57.918;12.530;2022-12-29T01:17:05;1.77;;;1.30;;
13425;SDS011;6785;57.918;12.530;2022-12-29T01:19:32;2.77;;;1.47;;
13425;SDS011;6785;57.918;12.530;2022-12-29T01:22:00;1.80;;;1.27;;
13425;SDS011;6785;57.918;12.530;2022-12-29T01:24:27;1.83;;;1.10;;
13425;SDS011;6785;57.918;12.530;2022-12-29T01:26:54;3.40;;;1.30;;
13425;SDS011;6785;57.918;12.530;2022-12-29T01:29:22;1.30;;;1.20;;
13425;SDS011;6785;57.918;12.530;2022-12-29T01:31:48;1.47;;;1.13;;
13425;SDS011;6785;57.918;12.530;2022-12-29T01:34:15;2.27;;;1.23;;
13425;SDS011;6785;57.918;12.530;2022-12-29T01:36:42;2.03;;;1.13;;
13425;SDS011;6785;57.918;12.530;2022-12-29T01:39:10;1.20;;;1.10;;
13425;SDS011;6785;57.918;12.530;2022-12-29T01:41:37;2.60;;;1.20;;
13425;SDS011;6785;57.918;12.530;2022-12-29T01:47:03;1.50;;;1.03;;
13425;SDS011;6785;57.918;12.530;2022-12-29T01:49:30;0.70;;;0.70;;
13425;SDS011;6785;57.918;12.530;2022-12-29T01:51:58;1.20;;;1.10;;
13425;SDS011;6785;57.918;12.530;2022-12-29T01:54:32;1.40;;;1.10;;
13425;SDS011;6785;57.918;12.530;2022-12-29T01:57:07;2.10;;;0.93;;
13425;SDS011;6785;57.918;12.530;2022-12-29T01:59:38;1.63;;;1.40;;
13425;SDS011;6785;57.918;12.530;2022-12-29T02:02:08;1.60;;;1.50;;
13425;SDS011;6785;57.918;12.530;2022-12-29T02:04:34;0.93;;;0.93;;
13425;SDS011;6785;57.918;12.530;2022-12-29T02:07:10;1.00;;;1.00;;
13425;SDS011;6785;57.918;12.530;2022-12-29T02:09:42;1.33;;;0.87;;
13425;SDS011;6785;57.918;12.530;2022-12-29T02:12:09;0.73;;;0.73;;
13425;SDS011;6785;57.918;12.530;2022-12-29T02:14:36;0.90;;;0.90;;
13425;SDS011;6785;57.918;12.530;2022-12-29T02:17:05;0.70;;;0.70;;
13425;SDS011;6785;57.918;12.530;2022-12-29T02:19:44;0.87;;;0.87;;
13425;SDS011;6785;57.918;12.530;2022-12-29T02:22:32;0.90;;;0.90;;
13425;SDS011;6785;57.918;12.530;2022-12-29T02:25:12;2.23;;;1.13;;
13425;SDS011;6785;57.918;12.530;2022-12-29T02:28:20;1.10;;;1.00;;
13425;SDS011;6785;57.918;12.530;2022-12-29T02:31:09;0.83;;;0.80;;
13425;SDS011;6785;57.918;12.530;2022-12-29T02:33:44;0.63;;;0.63;;
13425;SDS011;6785;57.918;12.530;2022-12-29T02:36:20;0.70;;;0.70;;
13425;SDS011;6785;57.918;12.530;2022-12-29T02:38:56;0.77;;;0.77;;
13425;SDS011;6785;57.918;12.530;2022-12-29T02:41:31;0.63;;;0.63;;
13425;SDS011;6785;57.918;12.530;2022-12-29T02:44:01;0.80;;;0.80;;
13425;SDS011;6785;57.918;12.530;2022-12-29T02:46:38;0.60;;;0.60;;
13425;SDS011;6785;57.918;12.530;2022-12-29T02:49:10;0.80;;;0.67;;
13425;SDS011;6785;57.918;12.530;2022-12-29T02:51:41;0.50;;;0.50;;
13425;SDS011;6785;57.918;12.530;2022-12-29T02:54:12;0.50;;;0.50;;
13425;SDS011;6785;57.918;12.530;2022-12-29T02:56:59;0.60;;;0.60;;
13425;SDS011;6785;57.918;12.530;2022-12-29T02:59:26;0.53;;;0.40;;
13425;SDS011;6785;57.918;12.530;2022-12-29T03:02:03;0.50;;;0.50;;
13425;SDS011;6785;57.918;12.530;2022-12-29T03:04:45;0.50;;;0.50;;
13425;SDS011;6785;57.918;12.530;2022-12-29T03:07:29;0.33;;;0.33;;
13425;SDS011;6785;57.918;12.530;2022-12-29T03:10:07;0.67;;;0.67;;
13425;SDS011;6785;57.918;12.530;2022-12-29T03:12:41;0.60;;;0.60;;
13425;SDS011;6785;57.918;12.530;2022-12-29T03:15:33;0.50;;;0.50;;
13425;SDS011;6785;57.918;12.530;2022-12-29T03:18:25;0.93;;;0.77;;
13425;SDS011;6785;57.918;12.530;2022-12-29T03:21:05;0.80;;;0.50;;
13425;SDS011;6785;57.918;12.530;2022-12-29T03:23:37;1.37;;;0.80;;
13425;SDS011;6785;57.918;12.530;2022-12-29T03:26:06;0.60;;;0.60;;
13425;SDS011;6785;57.918;12.530;2022-12-29T03:28:37;0.70;;;0.70;;
13425;SDS011;6785;57.918;12.530;2022-12-29T03:31:07;1.93;;;0.60;;
13425;SDS011;6785;57.918;12.530;2022-12-29T03:33:38;0.57;;;0.57;;
13425;SDS011;6785;57.918;12.530;2022-12-29T03:36:08;0.60;;;0.60;;
13425;SDS011;6785;57.918;12.530;2022-12-29T03:38:39;0.40;;;0.40;;
13425;SDS011;6785;57.918;12.530;2022-12-29T03:41:27;0.87;;;0.87;;
13425;SDS011;6785;57.918;12.530;2022-12-29T03:43:58;0.67;;;0.67;;
13425;SDS011;6785;57.918;12.530;2022-12-29T03:46:25;0.40;;;0.40;;
13425;SDS011;6785;57.918;12.530;2022-12-29T03:48:53;0.30;;;0.30;;
13425;SDS011;6785;57.918;12.530;2022-12-29T03:51:20;0.40;;;0.40;;
13425;SDS011;6785;57.918;12.530;2022-12-29T03:53:47;0.40;;;0.40;;
13425;SDS011;6785;57.918;12.530;2022-12-29T03:56:14;0.40;;;0.40;;
13425;SDS011;6785;57.918;12.530;2022-12-29T03:58:40;0.30;;;0.30;;
13425;SDS011;6785;57.918;12.530;2022-12-29T04:01:07;0.50;;;0.50;;
13425;SDS011;6785;57.918;12.530;2022-12-29T04:03:34;0.50;;;0.50;;
13425;SDS011;6785;57.918;12.530;2022-12-29T04:06:02;0.40;;;0.40;;
13425;SDS011;6785;57.918;12.530;2022-12-29T04:08:29;0.40;;;0.40;;
13425;SDS011;6785;57.918;12.530;2022-12-29T04:10:55;0.33;;;0.33;;
13425;SDS011;6785;57.918;12.530;2022-12-29T04:13:22;0.57;;;0.57;;
13425;SDS011;6785;57.918;12.530;2022-12-29T04:15:49;0.20;;;0.20;;
13425;SDS011;6785;57.918;12.530;2022-12-29T04:18:16;0.93;;;0.93;;
13425;SDS011;6785;57.918;12.530;2022-12-29T04:20:43;0.70;;;0.70;;
13425;SDS011;6785;57.918;12.530;2022-12-29T04:23:27;0.30;;;0.30;;
13425;SDS011;6785;57.918;12.530;2022-12-29T04:25:54;0.50;;;0.50;;
13425;SDS011;6785;57.918;12.530;2022-12-29T04:28:21;0.30;;;0.30;;
13425;SDS011;6785;57.918;12.530;2022-12-29T04:30:47;0.40;;;0.40;;
13425;SDS011;6785;57.918;12.530;2022-12-29T04:33:14;0.30;;;0.30;;
13425;SDS011;6785;57.918;12.530;2022-12-29T04:35:41;0.40;;;0.40;;
13425;SDS011;6785;57.918;12.530;2022-12-29T04:38:08;0.40;;;0.40;;
13425;SDS011;6785;57.918;12.530;2022-12-29T04:40:38;0.47;;;0.47;;
13425;SDS011;6785;57.918;12.530;2022-12-29T04:43:05;0.50;;;0.50;;
13425;SDS011;6785;57.918;12.530;2022-12-29T04:45:33;0.60;;;0.40;;
13425;SDS011;6785;57.918;12.530;2022-12-29T04:47:59;0.30;;;0.30;;
13425;SDS011;6785;57.918;12.530;2022-12-29T04:50:26;0.40;;;0.40;;
13425;SDS011;6785;57.918;12.530;2022-12-29T04:52:53;0.30;;;0.30;;
13425;SDS011;6785;57.918;12.530;2022-12-29T04:55:20;1.10;;;0.77;;
13425;SDS011;6785;57.918;12.530;2022-12-29T04:57:48;0.80;;;0.80;;
13425;SDS011;6785;57.918;12.530;2022-12-29T05:00:15;0.63;;;0.63;;
13425;SDS011;6785;57.918;12.530;2022-12-29T05:02:42;0.70;;;0.70;;
13425;SDS011;6785;57.918;12.530;2022-12-29T05:05:09;1.10;;;0.90;;
13425;SDS011;6785;57.918;12.530;2022-12-29T05:07:36;0.60;;;0.60;;
13425;SDS011;6785;57.918;12.530;2022-12-29T05:10:03;2.20;;;1.23;;
13425;SDS011;6785;57.918;12.530;2022-12-29T05:12:30;2.23;;;1.07;;
13425;SDS011;6785;57.918;12.530;2022-12-29T05:14:58;2.07;;;1.40;;
13425;SDS011;6785;57.918;12.530;2022-12-29T05:17:25;2.83;;;1.63;;
13425;SDS011;6785;57.918;12.530;2022-12-29T05:19:52;2.83;;;1.80;;
13425;SDS011;6785;57.918;12.530;2022-12-29T05:22:19;1.90;;;1.50;;
13425;SDS011;6785;57.918;12.530;2022-12-29T05:24:46;1.57;;;1.47;;
13425;SDS011;6785;57.918;12.530;2022-12-29T05:27:13;1.33;;;1.20;;
13425;SDS011;6785;57.918;12.530;2022-12-29T05:29:41;0.60;;;0.60;;
13425;SDS011;6785;57.918;12.530;2022-12-29T05:32:09;0.43;;;0.40;;
13425;SDS011;6785;57.918;12.530;2022-12-29T05:34:36;0.50;;;0.50;;
13425;SDS011;6785;57.918;12.530;2022-12-29T05:37:02;0.37;;;0.37;;
13425;SDS011;6785;57.918;12.530;2022-12-29T05:39:29;0.30;;;0.30;;
13425;SDS011;6785;57.918;12.530;2022-12-29T05:41:56;0.50;;;0.50;;
13425;SDS011;6785;57.918;12.530;2022-12-29T05:44:22;0.33;;;0.33;;
13425;SDS011;6785;57.918;12.530;2022-12-29T05:46:49;1.07;;;0.97;;
13425;SDS011;6785;57.918;12.530;2022-12-29T05:49:17;0.50;;;0.50;;
13425;SDS011;6785;57.918;12.530;2022-12-29T05:51:44;0.40;;;0.40;;
13425;SDS011;6785;57.918;12.530;2022-12-29T05:54:11;0.30;;;0.30;;
13425;SDS011;6785;57.918;12.530;2022-12-29T05:56:37;0.30;;;0.30;;
13425;SDS011;6785;57.918;12.530;2022-12-29T05:59:04;0.53;;;0.53;;
13425;SDS011;6785;57.918;12.530;2022-12-29T06:01:31;0.40;;;0.40;;
13425;SDS011;6785;57.918;12.530;2022-12-29T06:03:59;0.60;;;0.60;;
13425;SDS011;6785;57.918;12.530;2022-12-29T06:06:27;2.20;;;0.70;;
13425;SDS011;6785;57.918;12.530;2022-12-29T06:08:54;1.23;;;0.70;;
13425;SDS011;6785;57.918;12.530;2022-12-29T06:11:20;0.50;;;0.50;;
13425;SDS011;6785;57.918;12.530;2022-12-29T06:13:47;0.77;;;0.53;;
13425;SDS011;6785;57.918;12.530;2022-12-29T06:16:14;0.73;;;0.70;;
13425;SDS011;6785;57.918;12.530;2022-12-29T06:18:41;0.50;;;0.50;;
13425;SDS011;6785;57.918;12.530;2022-12-29T06:21:07;0.50;;;0.50;;
13425;SDS011;6785;57.918;12.530;2022-12-29T06:23:35;0.60;;;0.60;;
13425;SDS011;6785;57.918;12.530;2022-12-29T06:26:02;0.40;;;0.40;;
13425;SDS011;6785;57.918;12.530;2022-12-29T06:28:29;0.40;;;0.40;;
13425;SDS011;6785;57.918;12.530;2022-12-29T06:30:56;1.67;;;0.50;;
13425;SDS011;6785;57.918;12.530;2022-12-29T06:33:23;0.40;;;0.40;;
13425;SDS011;6785;57.918;12.530;2022-12-29T06:35:51;0.70;;;0.70;;
13425;SDS011;6785;57.918;12.530;2022-12-29T06:38:17;0.67;;;0.67;;
13425;SDS011;6785;57.918;12.530;2022-12-29T06:40:45;0.40;;;0.40;;
13425;SDS011;6785;57.918;12.530;2022-12-29T06:43:12;0.60;;;0.50;;
13425;SDS011;6785;57.918;12.530;2022-12-29T06:45:39;0.90;;;0.90;;
13425;SDS011;6785;57.918;12.530;2022-12-29T06:48:06;1.00;;;0.90;;
13425;SDS011;6785;57.918;12.530;2022-12-29T06:50:33;1.47;;;1.33;;
13425;SDS011;6785;57.918;12.530;2022-12-29T06:53:00;1.43;;;0.93;;
13425;SDS011;6785;57.918;12.530;2022-12-29T06:55:27;2.00;;;1.63;;
13425;SDS011;6785;57.918;12.530;2022-12-29T06:57:55;2.63;;;1.93;;
13425;SDS011;6785;57.918;12.530;2022-12-29T07:00:23;2.47;;;2.10;;
13425;SDS011;6785;57.918;12.530;2022-12-29T07:02:50;4.57;;;2.13;;
13425;SDS011;6785;57.918;12.530;2022-12-29T07:05:17;3.63;;;2.47;;
13425;SDS011;6785;57.918;12.530;2022-12-29T07:07:43;5.03;;;3.00;;
13425;SDS011;6785;57.918;12.530;2022-12-29T07:10:10;3.20;;;2.60;;
13425;SDS011;6785;57.918;12.530;2022-12-29T07:12:37;5.13;;;2.80;;
13425;SDS011;6785;57.918;12.530;2022-12-29T07:15:06;3.83;;;3.10;;
13425;SDS011;6785;57.918;12.530;2022-12-29T07:17:33;4.23;;;3.17;;
13425;SDS011;6785;57.918;12.530;2022-12-29T07:20:00;7.70;;;3.10;;
13425;SDS011;6785;57.918;12.530;2022-12-29T07:22:27;5.23;;;3.40;;
13425;SDS011;6785;57.918;12.530;2022-12-29T07:24:53;3.40;;;2.77;;
13425;SDS011;6785;57.918;12.530;2022-12-29T07:27:23;3.57;;;2.60;;
13425;SDS011;6785;57.918;12.530;2022-12-29T07:29:50;3.20;;;2.50;;
13425;SDS011;6785;57.918;12.530;2022-12-29T07:32:18;5.20;;;2.50;;
13425;SDS011;6785;57.918;12.530;2022-12-29T07:34:45;2.00;;;1.80;;
13425;SDS011;6785;57.918;12.530;2022-12-29T07:37:12;2.73;;;2.23;;
13425;SDS011;6785;57.918;12.530;2022-12-29T07:39:40;3.40;;;1.67;;
13425;SDS011;6785;57.918;12.530;2022-12-29T07:42:08;1.80;;;1.70;;
13425;SDS011;6785;57.918;12.530;2022-12-29T07:44:34;2.63;;;2.07;;
13425;SDS011;6785;57.918;12.530;2022-12-29T07:47:01;2.60;;;1.70;;
13425;SDS011;6785;57.918;12.530;2022-12-29T07:49:29;2.40;;;1.70;;
13425;SDS011;6785;57.918;12.530;2022-12-29T07:51:56;2.00;;;1.70;;
13425;SDS011;6785;57.918;12.530;2022-12-29T07:54:23;1.80;;;1.70;;
13425;SDS011;6785;57.918;12.530;2022-12-29T07:56:51;2.43;;;2.07;;
13425;SDS011;6785;57.918;12.530;2022-12-29T07:59:18;2.87;;;1.50;;
13425;SDS011;6785;57.918;12.530;2022-12-29T08:01:44;1.60;;;1.43;;
13425;SDS011;6785;57.918;12.530;2022-12-29T08:04:11;1.67;;;1.57;;
13425;SDS011;6785;57.918;12.530;2022-12-29T08:06:40;1.83;;;1.60;;
13425;SDS011;6785;57.918;12.530;2022-12-29T08:09:07;1.50;;;1.30;;
13425;SDS011;6785;57.918;12.530;2022-12-29T08:11:34;1.40;;;1.30;;
13425;SDS011;6785;57.918;12.530;2022-12-29T08:14:01;1.90;;;1.53;;
13425;SDS011;6785;57.918;12.530;2022-12-29T08:16:28;2.00;;;1.50;;
13425;SDS011;6785;57.918;12.530;2022-12-29T08:18:55;1.30;;;1.20;;
13425;SDS011;6785;57.918;12.530;2022-12-29T08:21:23;1.53;;;1.43;;
13425;SDS011;6785;57.918;12.530;2022-12-29T08:23:52;1.30;;;1.20;;
13425;SDS011;6785;57.918;12.530;2022-12-29T08:26:18;1.50;;;1.40;;
13425;SDS011;6785;57.918;12.530;2022-12-29T08:28:45;1.30;;;1.20;;
13425;SDS011;6785;57.918;12.530;2022-12-29T08:31:12;1.30;;;1.20;;
13425;SDS011;6785;57.918;12.530;2022-12-29T08:33:40;3.17;;;1.30;;
13425;SDS011;6785;57.918;12.530;2022-12-29T08:36:07;1.00;;;1.00;;
13425;SDS011;6785;57.918;12.530;2022-12-29T08:38:35;1.40;;;1.30;;
13425;SDS011;6785;57.918;12.530;2022-12-29T08:41:03;1.63;;;1.30;;
13425;SDS011;6785;57.918;12.530;2022-12-29T08:43:30;2.03;;;1.50;;
13425;SDS011;6785;57.918;12.530;2022-12-29T08:45:57;1.33;;;1.23;;
13425;SDS011;6785;57.918;12.530;2022-12-29T08:48:23;4.83;;;1.93;;
13425;SDS011;6785;57.918;12.530;2022-12-29T08:50:50;5.13;;;2.33;;
13425;SDS011;6785;57.918;12.530;2022-12-29T08:53:17;4.87;;;2.50;;
13425;SDS011;6785;57.918;12.530;2022-12-29T08:55:44;8.93;;;2.93;;
13425;SDS011;6785;57.918;12.530;2022-12-29T08:58:13;4.47;;;2.23;;
13425;SDS011;6785;57.918;12.530;2022-12-29T09:00:41;8.50;;;2.90;;
13425;SDS011;6785;57.918;12.530;2022-12-29T09:03:08;8.33;;;2.73;;
13425;SDS011;6785;57.918;12.530;2022-12-29T09:05:35;9.30;;;2.70;;
13425;SDS011;6785;57.918;12.530;2022-12-29T09:08:01;7.83;;;2.93;;
13425;SDS011;6785;57.918;12.530;2022-12-29T09:10:29;7.53;;;3.00;;
13425;SDS011;6785;57.918;12.530;2022-12-29T09:12:56;7.87;;;3.17;;
13425;SDS011;6785;57.918;12.530;2022-12-29T09:15:24;8.10;;;3.03;;
13425;SDS011;6785;57.918;12.530;2022-12-29T09:17:51;7.47;;;3.80;;
13425;SDS011;6785;57.918;12.530;2022-12-29T09:20:18;10.80;;;3.80;;
13425;SDS011;6785;57.918;12.530;2022-12-29T09:22:45;11.17;;;4.17;;
13425;SDS011;6785;57.918;12.530;2022-12-29T09:25:13;13.60;;;5.00;;
13425;SDS011;6785;57.918;12.530;2022-12-29T09:27:40;9.67;;;4.30;;
13425;SDS011;6785;57.918;12.530;2022-12-29T09:30:08;13.37;;;4.73;;
13425;SDS011;6785;57.918;12.530;2022-12-29T09:32:38;16.87;;;4.70;;
13425;SDS011;6785;57.918;12.530;2022-12-29T09:35:04;8.67;;;4.57;;
13425;SDS011;6785;57.918;12.530;2022-12-29T09:37:31;16.77;;;4.47;;
13425;SDS011;6785;57.918;12.530;2022-12-29T09:39:58;11.87;;;4.57;;
13425;SDS011;6785;57.918;12.530;2022-12-29T09:42:26;13.63;;;4.40;;
13425;SDS011;6785;57.918;12.530;2022-12-29T09:45:04;17.33;;;5.67;;
13425;SDS011;6785;57.918;12.530;2022-12-29T09:47:39;12.93;;;5.47;;
13425;SDS011;6785;57.918;12.530;2022-12-29T09:50:09;14.73;;;5.10;;
13425;SDS011;6785;57.918;12.530;2022-12-29T09:52:45;14.87;;;4.80;;
13425;SDS011;6785;57.918;12.530;2022-12-29T09:55:17;16.73;;;5.20;;
13425;SDS011;6785;57.918;12.530;2022-12-29T09:57:48;13.50;;;4.93;;
13425;SDS011;6785;57.918;12.530;2022-12-29T10:00:21;14.30;;;5.03;;
13425;SDS011;6785;57.918;12.530;2022-12-29T10:02:51;9.83;;;4.70;;
13425;SDS011;6785;57.918;12.530;2022-12-29T10:05:30;10.43;;;4.00;;
13425;SDS011;6785;57.918;12.530;2022-12-29T10:08:10;11.07;;;4.43;;
13425;SDS011;6785;57.918;12.530;2022-12-29T10:10:50;10.87;;;4.07;;
13425;SDS011;6785;57.918;12.530;2022-12-29T10:13:26;12.63;;;3.93;;
13425;SDS011;6785;57.918;12.530;2022-12-29T10:15:59;9.13;;;3.40;;
13425;SDS011;6785;57.918;12.530;2022-12-29T10:18:45;9.53;;;3.67;;
13425;SDS011;6785;57.918;12.530;2022-12-29T10:21:22;7.57;;;3.30;;
13425;SDS011;6785;57.918;12.530;2022-12-29T10:23:55;6.67;;;3.57;;
13425;SDS011;6785;57.918;12.530;2022-12-29T10:26:25;8.90;;;3.00;;
13425;SDS011;6785;57.918;12.530;2022-12-29T10:28:56;4.67;;;3.27;;
13425;SDS011;6785;57.918;12.530;2022-12-29T10:31:28;4.30;;;3.10;;
13425;SDS011;6785;57.918;12.530;2022-12-29T10:34:03;5.00;;;2.63;;
13425;SDS011;6785;57.918;12.530;2022-12-29T10:36:39;4.50;;;2.77;;
13425;SDS011;6785;57.918;12.530;2022-12-29T10:39:11;3.40;;;2.73;;
13425;SDS011;6785;57.918;12.530;2022-12-29T10:41:46;4.70;;;2.53;;
13425;SDS011;6785;57.918;12.530;2022-12-29T10:44:16;4.67;;;3.03;;
13425;SDS011;6785;57.918;12.530;2022-12-29T10:46:45;3.87;;;2.70;;
13425;SDS011;6785;57.918;12.530;2022-12-29T10:49:19;6.23;;;2.40;;
13425;SDS011;6785;57.918;12.530;2022-12-29T10:51:46;4.10;;;2.50;;
13425;SDS011;6785;57.918;12.530;2022-12-29T10:54:18;8.50;;;3.30;;
13425;SDS011;6785;57.918;12.530;2022-12-29T10:57:20;7.40;;;3.70;;
13425;SDS011;6785;57.918;12.530;2022-12-29T10:59:52;6.90;;;2.87;;
13425;SDS011;6785;57.918;12.530;2022-12-29T11:05:12;3.93;;;2.17;;
13425;SDS011;6785;57.918;12.530;2022-12-29T11:07:47;4.10;;;2.07;;
13425;SDS011;6785;57.918;12.530;2022-12-29T11:10:16;4.37;;;1.90;;
13425;SDS011;6785;57.918;12.530;2022-12-29T11:12:55;5.27;;;2.27;;
13425;SDS011;6785;57.918;12.530;2022-12-29T11:15:23;5.93;;;2.30;;
13425;SDS011;6785;57.918;12.530;2022-12-29T11:17:51;8.23;;;3.40;;
13425;SDS011;6785;57.918;12.530;2022-12-29T11:20:24;7.37;;;3.80;;
13425;SDS011;6785;57.918;12.530;2022-12-29T11:22:54;8.97;;;3.77;;
13425;SDS011;6785;57.918;12.530;2022-12-29T11:25:21;9.73;;;4.03;;
13425;SDS011;6785;57.918;12.530;2022-12-29T11:27:56;7.83;;;3.93;;
13425;SDS011;6785;57.918;12.530;2022-12-29T11:30:27;6.90;;;3.30;;
13425;SDS011;6785;57.918;12.530;2022-12-29T11:32:56;9.70;;;3.30;;
13425;SDS011;6785;57.918;12.530;2022-12-29T11:35:30;7.20;;;3.30;;
13425;SDS011;6785;57.918;12.530;2022-12-29T11:37:59;10.47;;;3.70;;
13425;SDS011;6785;57.918;12.530;2022-12-29T11:40:27;10.50;;;3.63;;
13425;SDS011;6785;57.918;12.530;2022-12-29T11:42:57;7.97;;;3.57;;
13425;SDS011;6785;57.918;12.530;2022-12-29T11:45:28;13.63;;;3.53;;
13425;SDS011;6785;57.918;12.530;2022-12-29T11:47:58;15.53;;;3.33;;
13425;SDS011;6785;57.918;12.530;2022-12-29T11:50:26;13.07;;;3.70;;
13425;SDS011;6785;57.918;12.530;2022-12-29T11:52:57;14.53;;;3.97;;
13425;SDS011;6785;57.918;12.530;2022-12-29T11:55:27;15.47;;;3.90;;
13425;SDS011;6785;57.918;12.530;2022-12-29T11:57:55;11.97;;;3.93;;
13425;SDS011;6785;57.918;12.530;2022-12-29T12:00:26;14.70;;;4.93;;
13425;SDS011;6785;57.918;12.530;2022-12-29T12:02:57;18.23;;;4.20;;
13425;SDS011;6785;57.918;12.530;2022-12-29T12:05:32;15.80;;;4.03;;
13425;SDS011;6785;57.918;12.530;2022-12-29T12:08:07;26.57;;;4.70;;
13425;SDS011;6785;57.918;12.530;2022-12-29T12:10:39;18.70;;;4.33;;
13425;SDS011;6785;57.918;12.530;2022-12-29T12:13:16;20.83;;;4.47;;
13425;SDS011;6785;57.918;12.530;2022-12-29T12:15:47;21.80;;;4.80;;
13425;SDS011;6785;57.918;12.530;2022-12-29T12:18:18;18.93;;;3.93;;
13425;SDS011;6785;57.918;12.530;2022-12-29T12:20:54;20.07;;;4.30;;
13425;SDS011;6785;57.918;12.530;2022-12-29T12:23:26;21.43;;;5.33;;
13425;SDS011;6785;57.918;12.530;2022-12-29T12:26:02;20.17;;;4.43;;
13425;SDS011;6785;57.918;12.530;2022-12-29T12:28:40;19.93;;;3.83;;
13425;SDS011;6785;57.918;12.530;2022-12-29T12:31:17;16.77;;;3.57;;
13425;SDS011;6785;57.918;12.530;2022-12-29T12:33:53;19.47;;;3.70;;
13425;SDS011;6785;57.918;12.530;2022-12-29T12:36:34;18.73;;;3.53;;
13425;SDS011;6785;57.918;12.530;2022-12-29T12:39:20;21.13;;;3.60;;
13425;SDS011;6785;57.918;12.530;2022-12-29T12:41:56;17.87;;;3.57;;
13425;SDS011;6785;57.918;12.530;2022-12-29T12:44:35;18.47;;;4.33;;
13425;SDS011;6785;57.918;12.530;2022-12-29T12:47:15;24.80;;;3.87;;
13425;SDS011;6785;57.918;12.530;2022-12-29T12:49:58;15.83;;;3.73;;
13425;SDS011;6785;57.918;12.530;2022-12-29T12:52:49;21.23;;;4.57;;
13425;SDS011;6785;57.918;12.530;2022-12-29T12:55:31;22.77;;;3.93;;
13425;SDS011;6785;57.918;12.530;2022-12-29T12:58:11;14.30;;;3.40;;
13425;SDS011;6785;57.918;12.530;2022-12-29T13:00:46;22.17;;;3.73;;
13425;SDS011;6785;57.918;12.530;2022-12-29T13:03:25;23.10;;;4.27;;
13425;SDS011;6785;57.918;12.530;2022-12-29T13:06:04;24.50;;;4.27;;
13425;SDS011;6785;57.918;12.530;2022-12-29T13:08:43;23.37;;;4.30;;
13425;SDS011;6785;57.918;12.530;2022-12-29T13:11:37;24.77;;;4.67;;
13425;SDS011;6785;57.918;12.530;2022-12-29T13:14:18;25.63;;;5.37;;
13425;SDS011;6785;57.918;12.530;2022-12-29T13:16:55;24.70;;;4.27;;
13425;SDS011;6785;57.918;12.530;2022-12-29T13:19:30;22.87;;;4.77;;
13425;SDS011;6785;57.918;12.530;2022-12-29T13:22:04;28.50;;;4.67;;
13425;SDS011;6785;57.918;12.530;2022-12-29T13:24:36;26.17;;;4.43;;
13425;SDS011;6785;57.918;12.530;2022-12-29T13:27:15;19.80;;;3.63;;
13425;SDS011;6785;57.918;12.530;2022-12-29T13:29:47;17.20;;;4.23;;
13425;SDS011;6785;57.918;12.530;2022-12-29T13:32:25;24.80;;;4.83;;
13425;SDS011;6785;57.918;12.530;2022-12-29T13:35:05;22.10;;;4.10;;
13425;SDS011;6785;57.918;12.530;2022-12-29T13:37:44;15.30;;;4.10;;
13425;SDS011;6785;57.918;12.530;2022-12-29T13:40:16;16.90;;;4.10;;
13425;SDS011;6785;57.918;12.530;2022-12-29T13:42:46;26.27;;;4.60;;
13425;SDS011;6785;57.918;12.530;2022-12-29T13:45:14;18.07;;;4.20;;
13425;SDS011;6785;57.918;12.530;2022-12-29T13:47:46;15.37;;;3.37;;
13425;SDS011;6785;57.918;12.530;2022-12-29T13:50:18;20.73;;;4.13;;
13425;SDS011;6785;57.918;12.530;2022-12-29T13:52:48;21.10;;;4.73;;
13425;SDS011;6785;57.918;12.530;2022-12-29T13:55:25;25.17;;;4.30;;
13425;SDS011;6785;57.918;12.530;2022-12-29T13:57:57;18.70;;;4.30;;
13425;SDS011;6785;57.918;12.530;2022-12-29T14:00:29;29.43;;;4.83;;
13425;SDS011;6785;57.918;12.530;2022-12-29T14:03:12;23.57;;;4.63;;
13425;SDS011;6785;57.918;12.530;2022-12-29T14:06:02;18.03;;;4.27;;
13425;SDS011;6785;57.918;12.530;2022-12-29T14:08:37;23.20;;;5.20;;
13425;SDS011;6785;57.918;12.530;2022-12-29T14:11:06;22.33;;;4.43;;
13425;SDS011;6785;57.918;12.530;2022-12-29T14:13:36;20.07;;;4.40;;
13425;SDS011;6785;57.918;12.530;2022-12-29T14:16:05;16.00;;;3.27;;
13425;SDS011;6785;57.918;12.530;2022-12-29T14:18:41;31.63;;;4.77;;
13425;SDS011;6785;57.918;12.530;2022-12-29T14:21:10;29.37;;;4.80;;
13425;SDS011;6785;57.918;12.530;2022-12-29T14:23:47;20.57;;;3.67;;
13425;SDS011;6785;57.918;12.530;2022-12-29T14:26:16;26.33;;;3.93;;
13425;SDS011;6785;57.918;12.530;2022-12-29T14:28:46;23.57;;;4.67;;
13425;SDS011;6785;57.918;12.530;2022-12-29T14:31:33;28.20;;;4.73;;
13425;SDS011;6785;57.918;12.530;2022-12-29T14:36:57;20.23;;;3.63;;
13425;SDS011;6785;57.918;12.530;2022-12-29T14:39:30;26.07;;;4.13;;
13425;SDS011;6785;57.918;12.530;2022-12-29T14:41:59;22.23;;;3.80;;
13425;SDS011;6785;57.918;12.530;2022-12-29T14:44:26;19.93;;;3.97;;
13425;SDS011;6785;57.918;12.530;2022-12-29T14:46:57;17.20;;;3.30;;
13425;SDS011;6785;57.918;12.530;2022-12-29T14:49:26;21.10;;;3.97;;
13425;SDS011;6785;57.918;12.530;2022-12-29T14:52:05;16.03;;;3.93;;
13425;SDS011;6785;57.918;12.530;2022-12-29T14:54:42;17.20;;;3.43;;
13425;SDS011;6785;57.918;12.530;2022-12-29T14:57:17;20.13;;;3.40;;
13425;SDS011;6785;57.918;12.530;2022-12-29T15:00:00;22.67;;;3.90;;
13425;SDS011;6785;57.918;12.530;2022-12-29T15:02:33;18.73;;;3.50;;
13425;SDS011;6785;57.918;12.530;2022-12-29T15:05:04;21.17;;;3.53;;
13425;SDS011;6785;57.918;12.530;2022-12-29T15:07:33;14.07;;;3.07;;
13425;SDS011;6785;57.918;12.530;2022-12-29T15:10:03;15.70;;;3.17;;
13425;SDS011;6785;57.918;12.530;2022-12-29T15:12:35;15.63;;;3.03;;
13425;SDS011;6785;57.918;12.530;2022-12-29T15:15:17;15.57;;;3.07;;